sensor_id;sensor_type;location;lat;lon;timestamp;P1;durP1;ratioP1;P2;durP2;ratioP2
57663;SDS011;43493;53.098;6.064;2023-09-30T00:01:21;14.57;;;4.37;;
57663;SDS011;43493;53.098;6.064;2023-09-30T00:03:47;14.60;;;3.93;;
57663;SDS011;43493;53.098;6.064;2023-09-30T00:06:13;18.47;;;4.00;;
57663;SDS011;43493;53.098;6.064;2023-09-30T00:08:38;18.60;;;4.63;;
57663;SDS011;43493;53.098;6.064;2023-09-30T00:11:05;16.67;;;5.50;;
57663;SDS011;43493;53.098;6.064;2023-09-30T00:13:31;12.07;;;3.00;;
57663;SDS011;43493;53.098;6.064;2023-09-30T00:15:57;17.13;;;4.80;;
57663;SDS011;43493;53.098;6.064;2023-09-30T00:18:23;15.47;;;3.53;;
57663;SDS011;43493;53.098;6.064;2023-09-30T00:20:48;13.40;;;4.20;;
57663;SDS011;43493;53.098;6.064;2023-09-30T00:23:14;9.77;;;2.73;;
57663;SDS011;43493;53.098;6.064;2023-09-30T00:25:40;18.63;;;3.73;;
57663;SDS011;43493;53.098;6.064;2023-09-30T00:28:06;21.43;;;4.40;;
57663;SDS011;43493;53.098;6.064;2023-09-30T00:30:32;13.33;;;3.47;;
57663;SDS011;43493;53.098;6.064;2023-09-30T00:32:58;16.17;;;4.10;;
57663;SDS011;43493;53.098;6.064;2023-09-30T00:35:24;18.37;;;4.80;;
57663;SDS011;43493;53.098;6.064;2023-09-30T00:37:50;24.13;;;4.40;;
57663;SDS011;43493;53.098;6.064;2023-09-30T00:40:16;13.67;;;3.83;;
57663;SDS011;43493;53.098;6.064;2023-09-30T00:42:42;17.40;;;4.63;;
57663;SDS011;43493;53.098;6.064;2023-09-30T00:45:08;11.20;;;4.07;;
57663;SDS011;43493;53.098;6.064;2023-09-30T00:47:35;12.03;;;3.40;;
57663;SDS011;43493;53.098;6.064;2023-09-30T00:50:02;15.97;;;4.17;;
57663;SDS011;43493;53.098;6.064;2023-09-30T00:52:32;12.30;;;4.00;;
57663;SDS011;43493;53.098;6.064;2023-09-30T00:54:59;18.53;;;4.43;;
57663;SDS011;43493;53.098;6.064;2023-09-30T00:57:26;14.77;;;4.17;;
57663;SDS011;43493;53.098;6.064;2023-09-30T00:59:53;15.27;;;4.00;;
57663;SDS011;43493;53.098;6.064;2023-09-30T01:02:19;15.87;;;4.43;;
57663;SDS011;43493;53.098;6.064;2023-09-30T01:04:47;15.63;;;4.60;;
57663;SDS011;43493;53.098;6.064;2023-09-30T01:07:13;16.03;;;4.30;;
57663;SDS011;43493;53.098;6.064;2023-09-30T01:09:39;14.97;;;4.07;;
57663;SDS011;43493;53.098;6.064;2023-09-30T01:12:05;13.77;;;3.70;;
57663;SDS011;43493;53.098;6.064;2023-09-30T01:14:33;18.73;;;4.23;;
57663;SDS011;43493;53.098;6.064;2023-09-30T01:17:07;15.10;;;4.65;;
57663;SDS011;43493;53.098;6.064;2023-09-30T01:19:34;17.10;;;4.43;;
57663;SDS011;43493;53.098;6.064;2023-09-30T01:22:00;13.17;;;4.20;;
57663;SDS011;43493;53.098;6.064;2023-09-30T01:24:31;13.23;;;3.80;;
57663;SDS011;43493;53.098;6.064;2023-09-30T01:27:03;14.23;;;4.60;;
57663;SDS011;43493;53.098;6.064;2023-09-30T01:29:29;12.77;;;4.10;;
57663;SDS011;43493;53.098;6.064;2023-09-30T01:31:54;13.37;;;4.23;;
57663;SDS011;43493;53.098;6.064;2023-09-30T01:34:20;11.77;;;3.67;;
57663;SDS011;43493;53.098;6.064;2023-09-30T01:36:46;12.67;;;3.53;;
57663;SDS011;43493;53.098;6.064;2023-09-30T01:39:12;12.53;;;3.87;;
57663;SDS011;43493;53.098;6.064;2023-09-30T01:41:38;14.03;;;4.20;;
57663;SDS011;43493;53.098;6.064;2023-09-30T01:44:07;13.33;;;4.00;;
57663;SDS011;43493;53.098;6.064;2023-09-30T01:46:34;13.40;;;3.93;;
57663;SDS011;43493;53.098;6.064;2023-09-30T01:49:00;14.47;;;3.77;;
57663;SDS011;43493;53.098;6.064;2023-09-30T01:51:25;12.63;;;3.60;;
57663;SDS011;43493;53.098;6.064;2023-09-30T01:53:52;12.70;;;3.40;;
57663;SDS011;43493;53.098;6.064;2023-09-30T01:56:18;11.53;;;3.00;;
57663;SDS011;43493;53.098;6.064;2023-09-30T01:58:44;13.50;;;3.60;;
57663;SDS011;43493;53.098;6.064;2023-09-30T02:01:09;16.17;;;3.90;;
57663;SDS011;43493;53.098;6.064;2023-09-30T02:03:35;11.47;;;3.07;;
57663;SDS011;43493;53.098;6.064;2023-09-30T02:06:01;13.30;;;3.60;;
57663;SDS011;43493;53.098;6.064;2023-09-30T02:08:27;13.13;;;3.07;;
57663;SDS011;43493;53.098;6.064;2023-09-30T02:10:52;13.13;;;3.40;;
57663;SDS011;43493;53.098;6.064;2023-09-30T02:13:18;13.37;;;3.60;;
57663;SDS011;43493;53.098;6.064;2023-09-30T02:15:46;12.27;;;3.43;;
57663;SDS011;43493;53.098;6.064;2023-09-30T02:18:12;9.50;;;2.93;;
57663;SDS011;43493;53.098;6.064;2023-09-30T02:20:37;14.57;;;3.00;;
57663;SDS011;43493;53.098;6.064;2023-09-30T02:23:10;9.33;;;3.47;;
57663;SDS011;43493;53.098;6.064;2023-09-30T02:25:37;13.67;;;3.20;;
57663;SDS011;43493;53.098;6.064;2023-09-30T02:28:03;18.53;;;3.67;;
57663;SDS011;43493;53.098;6.064;2023-09-30T02:30:29;9.40;;;3.37;;
57663;SDS011;43493;53.098;6.064;2023-09-30T02:32:56;16.20;;;3.77;;
57663;SDS011;43493;53.098;6.064;2023-09-30T02:35:21;13.30;;;3.80;;
57663;SDS011;43493;53.098;6.064;2023-09-30T02:37:47;11.50;;;3.10;;
57663;SDS011;43493;53.098;6.064;2023-09-30T02:40:17;19.10;;;4.17;;
57663;SDS011;43493;53.098;6.064;2023-09-30T02:42:43;12.50;;;3.50;;
57663;SDS011;43493;53.098;6.064;2023-09-30T02:45:10;7.60;;;3.07;;
57663;SDS011;43493;53.098;6.064;2023-09-30T02:47:36;14.47;;;3.30;;
57663;SDS011;43493;53.098;6.064;2023-09-30T02:50:04;9.90;;;3.30;;
57663;SDS011;43493;53.098;6.064;2023-09-30T02:52:31;15.50;;;3.93;;
57663;SDS011;43493;53.098;6.064;2023-09-30T02:54:58;10.63;;;3.03;;
57663;SDS011;43493;53.098;6.064;2023-09-30T02:57:24;10.67;;;3.40;;
57663;SDS011;43493;53.098;6.064;2023-09-30T02:59:50;13.27;;;4.03;;
57663;SDS011;43493;53.098;6.064;2023-09-30T03:02:19;12.53;;;3.77;;
57663;SDS011;43493;53.098;6.064;2023-09-30T03:04:46;14.33;;;3.87;;
57663;SDS011;43493;53.098;6.064;2023-09-30T03:07:15;11.37;;;3.80;;
57663;SDS011;43493;53.098;6.064;2023-09-30T03:09:41;16.40;;;4.20;;
57663;SDS011;43493;53.098;6.064;2023-09-30T03:12:07;10.57;;;3.20;;
57663;SDS011;43493;53.098;6.064;2023-09-30T03:14:34;11.40;;;3.33;;
57663;SDS011;43493;53.098;6.064;2023-09-30T03:16:59;9.97;;;3.47;;
57663;SDS011;43493;53.098;6.064;2023-09-30T03:19:25;16.83;;;3.60;;
57663;SDS011;43493;53.098;6.064;2023-09-30T03:21:51;12.17;;;3.37;;
57663;SDS011;43493;53.098;6.064;2023-09-30T03:24:17;11.37;;;3.00;;
57663;SDS011;43493;53.098;6.064;2023-09-30T03:26:43;14.63;;;3.60;;
57663;SDS011;43493;53.098;6.064;2023-09-30T03:29:09;12.30;;;3.63;;
57663;SDS011;43493;53.098;6.064;2023-09-30T03:31:35;13.80;;;3.70;;
57663;SDS011;43493;53.098;6.064;2023-09-30T03:34:04;13.10;;;3.43;;
57663;SDS011;43493;53.098;6.064;2023-09-30T03:36:30;14.20;;;4.27;;
57663;SDS011;43493;53.098;6.064;2023-09-30T03:38:55;15.63;;;4.60;;
57663;SDS011;43493;53.098;6.064;2023-09-30T03:41:30;15.13;;;3.30;;
57663;SDS011;43493;53.098;6.064;2023-09-30T03:43:56;15.37;;;4.23;;
57663;SDS011;43493;53.098;6.064;2023-09-30T03:46:22;15.27;;;3.67;;
57663;SDS011;43493;53.098;6.064;2023-09-30T03:48:48;14.80;;;4.17;;
57663;SDS011;43493;53.098;6.064;2023-09-30T03:51:13;15.00;;;4.63;;
57663;SDS011;43493;53.098;6.064;2023-09-30T03:53:41;13.67;;;3.80;;
57663;SDS011;43493;53.098;6.064;2023-09-30T03:56:07;11.53;;;4.17;;
57663;SDS011;43493;53.098;6.064;2023-09-30T03:58:33;12.30;;;4.70;;
57663;SDS011;43493;53.098;6.064;2023-09-30T04:00:59;12.40;;;4.10;;
57663;SDS011;43493;53.098;6.064;2023-09-30T04:03:25;14.10;;;4.80;;
57663;SDS011;43493;53.098;6.064;2023-09-30T04:05:54;12.90;;;4.53;;
57663;SDS011;43493;53.098;6.064;2023-09-30T04:08:20;14.23;;;4.87;;
57663;SDS011;43493;53.098;6.064;2023-09-30T04:10:47;17.30;;;4.63;;
57663;SDS011;43493;53.098;6.064;2023-09-30T04:13:13;15.53;;;4.73;;
57663;SDS011;43493;53.098;6.064;2023-09-30T04:15:39;11.70;;;4.73;;
57663;SDS011;43493;53.098;6.064;2023-09-30T04:18:04;16.30;;;4.97;;
57663;SDS011;43493;53.098;6.064;2023-09-30T04:20:31;11.40;;;4.40;;
57663;SDS011;43493;53.098;6.064;2023-09-30T04:22:57;15.97;;;4.70;;
57663;SDS011;43493;53.098;6.064;2023-09-30T04:25:23;13.13;;;5.30;;
57663;SDS011;43493;53.098;6.064;2023-09-30T04:27:50;12.70;;;5.87;;
57663;SDS011;43493;53.098;6.064;2023-09-30T04:30:16;15.27;;;5.70;;
57663;SDS011;43493;53.098;6.064;2023-09-30T04:32:42;12.43;;;4.60;;
57663;SDS011;43493;53.098;6.064;2023-09-30T04:35:09;20.00;;;6.57;;
57663;SDS011;43493;53.098;6.064;2023-09-30T04:37:36;17.17;;;6.07;;
57663;SDS011;43493;53.098;6.064;2023-09-30T04:40:06;15.47;;;5.87;;
57663;SDS011;43493;53.098;6.064;2023-09-30T04:42:45;14.70;;;6.03;;
57663;SDS011;43493;53.098;6.064;2023-09-30T04:45:14;16.70;;;6.57;;
57663;SDS011;43493;53.098;6.064;2023-09-30T04:47:42;15.20;;;5.53;;
57663;SDS011;43493;53.098;6.064;2023-09-30T04:50:10;16.87;;;5.60;;
57663;SDS011;43493;53.098;6.064;2023-09-30T04:52:37;17.03;;;5.70;;
57663;SDS011;43493;53.098;6.064;2023-09-30T04:55:04;16.70;;;6.87;;
57663;SDS011;43493;53.098;6.064;2023-09-30T04:57:30;15.07;;;5.70;;
57663;SDS011;43493;53.098;6.064;2023-09-30T04:59:57;17.50;;;5.80;;
57663;SDS011;43493;53.098;6.064;2023-09-30T05:02:23;11.77;;;5.57;;
57663;SDS011;43493;53.098;6.064;2023-09-30T05:04:50;13.93;;;6.07;;
57663;SDS011;43493;53.098;6.064;2023-09-30T05:07:16;11.33;;;5.47;;
57663;SDS011;43493;53.098;6.064;2023-09-30T05:09:41;18.17;;;6.30;;
57663;SDS011;43493;53.098;6.064;2023-09-30T05:12:07;16.60;;;7.30;;
57663;SDS011;43493;53.098;6.064;2023-09-30T05:14:35;14.23;;;6.47;;
57663;SDS011;43493;53.098;6.064;2023-09-30T05:17:02;21.53;;;7.83;;
57663;SDS011;43493;53.098;6.064;2023-09-30T05:19:30;15.47;;;6.97;;
57663;SDS011;43493;53.098;6.064;2023-09-30T05:21:59;15.53;;;7.10;;
57663;SDS011;43493;53.098;6.064;2023-09-30T05:24:27;15.40;;;6.97;;
57663;SDS011;43493;53.098;6.064;2023-09-30T05:26:53;15.37;;;7.40;;
57663;SDS011;43493;53.098;6.064;2023-09-30T05:29:19;15.83;;;7.47;;
57663;SDS011;43493;53.098;6.064;2023-09-30T05:31:45;15.17;;;7.27;;
57663;SDS011;43493;53.098;6.064;2023-09-30T05:34:12;19.27;;;8.70;;
57663;SDS011;43493;53.098;6.064;2023-09-30T05:36:37;19.13;;;8.30;;
57663;SDS011;43493;53.098;6.064;2023-09-30T05:39:03;20.00;;;8.30;;
57663;SDS011;43493;53.098;6.064;2023-09-30T05:41:30;21.13;;;8.33;;
57663;SDS011;43493;53.098;6.064;2023-09-30T05:43:58;20.13;;;8.40;;
57663;SDS011;43493;53.098;6.064;2023-09-30T05:46:24;16.13;;;8.77;;
57663;SDS011;43493;53.098;6.064;2023-09-30T05:48:52;18.53;;;7.63;;
57663;SDS011;43493;53.098;6.064;2023-09-30T05:51:18;17.93;;;9.20;;
57663;SDS011;43493;53.098;6.064;2023-09-30T05:53:44;18.27;;;8.93;;
57663;SDS011;43493;53.098;6.064;2023-09-30T05:56:10;18.23;;;8.67;;
57663;SDS011;43493;53.098;6.064;2023-09-30T05:58:41;20.17;;;8.33;;
57663;SDS011;43493;53.098;6.064;2023-09-30T06:01:10;21.77;;;8.40;;
57663;SDS011;43493;53.098;6.064;2023-09-30T06:03:39;15.83;;;7.37;;
57663;SDS011;43493;53.098;6.064;2023-09-30T06:06:11;15.63;;;7.17;;
57663;SDS011;43493;53.098;6.064;2023-09-30T06:08:38;15.63;;;7.70;;
57663;SDS011;43493;53.098;6.064;2023-09-30T06:11:03;13.97;;;8.20;;
57663;SDS011;43493;53.098;6.064;2023-09-30T06:13:29;19.17;;;9.10;;
57663;SDS011;43493;53.098;6.064;2023-09-30T06:15:57;17.00;;;9.17;;
57663;SDS011;43493;53.098;6.064;2023-09-30T06:18:24;16.73;;;9.40;;
57663;SDS011;43493;53.098;6.064;2023-09-30T06:20:49;15.33;;;8.47;;
57663;SDS011;43493;53.098;6.064;2023-09-30T06:23:16;16.30;;;7.67;;
57663;SDS011;43493;53.098;6.064;2023-09-30T06:25:42;17.50;;;8.60;;
57663;SDS011;43493;53.098;6.064;2023-09-30T06:28:08;15.97;;;7.97;;
57663;SDS011;43493;53.098;6.064;2023-09-30T06:30:34;17.67;;;8.23;;
57663;SDS011;43493;53.098;6.064;2023-09-30T06:33:00;15.83;;;8.07;;
57663;SDS011;43493;53.098;6.064;2023-09-30T06:35:27;17.63;;;8.13;;
57663;SDS011;43493;53.098;6.064;2023-09-30T06:37:55;17.77;;;8.20;;
57663;SDS011;43493;53.098;6.064;2023-09-30T06:40:20;17.27;;;8.57;;
57663;SDS011;43493;53.098;6.064;2023-09-30T06:42:47;16.90;;;8.73;;
57663;SDS011;43493;53.098;6.064;2023-09-30T06:45:12;15.00;;;8.00;;
57663;SDS011;43493;53.098;6.064;2023-09-30T06:47:40;16.73;;;8.60;;
57663;SDS011;43493;53.098;6.064;2023-09-30T06:50:10;17.70;;;8.23;;
57663;SDS011;43493;53.098;6.064;2023-09-30T06:52:40;18.17;;;9.30;;
57663;SDS011;43493;53.098;6.064;2023-09-30T06:55:06;17.80;;;9.83;;
57663;SDS011;43493;53.098;6.064;2023-09-30T06:57:36;15.70;;;8.63;;
57663;SDS011;43493;53.098;6.064;2023-09-30T07:02:37;21.77;;;10.80;;
57663;SDS011;43493;53.098;6.064;2023-09-30T07:05:09;18.37;;;9.00;;
57663;SDS011;43493;53.098;6.064;2023-09-30T07:07:36;15.60;;;8.90;;
57663;SDS011;43493;53.098;6.064;2023-09-30T07:10:02;13.40;;;7.90;;
57663;SDS011;43493;53.098;6.064;2023-09-30T07:12:29;13.20;;;7.67;;
57663;SDS011;43493;53.098;6.064;2023-09-30T07:14:56;15.37;;;8.40;;
57663;SDS011;43493;53.098;6.064;2023-09-30T07:17:22;18.00;;;7.87;;
57663;SDS011;43493;53.098;6.064;2023-09-30T07:19:48;15.83;;;7.80;;
57663;SDS011;43493;53.098;6.064;2023-09-30T07:22:14;13.30;;;7.83;;
57663;SDS011;43493;53.098;6.064;2023-09-30T07:24:40;14.67;;;7.63;;
57663;SDS011;43493;53.098;6.064;2023-09-30T07:27:06;14.17;;;7.67;;
57663;SDS011;43493;53.098;6.064;2023-09-30T07:29:31;15.10;;;8.30;;
57663;SDS011;43493;53.098;6.064;2023-09-30T07:31:58;13.60;;;7.73;;
57663;SDS011;43493;53.098;6.064;2023-09-30T07:34:24;18.97;;;8.83;;
57663;SDS011;43493;53.098;6.064;2023-09-30T07:36:49;16.67;;;7.90;;
57663;SDS011;43493;53.098;6.064;2023-09-30T07:39:15;13.30;;;8.47;;
57663;SDS011;43493;53.098;6.064;2023-09-30T07:41:42;16.77;;;8.57;;
57663;SDS011;43493;53.098;6.064;2023-09-30T07:44:08;13.80;;;7.47;;
57663;SDS011;43493;53.098;6.064;2023-09-30T07:46:34;16.43;;;8.00;;
57663;SDS011;43493;53.098;6.064;2023-09-30T07:49:00;14.87;;;8.67;;
57663;SDS011;43493;53.098;6.064;2023-09-30T07:51:28;13.97;;;8.20;;
57663;SDS011;43493;53.098;6.064;2023-09-30T07:53:55;16.70;;;8.60;;
57663;SDS011;43493;53.098;6.064;2023-09-30T07:56:22;14.37;;;8.30;;
57663;SDS011;43493;53.098;6.064;2023-09-30T07:58:48;18.57;;;8.10;;
57663;SDS011;43493;53.098;6.064;2023-09-30T08:01:14;13.23;;;7.67;;
57663;SDS011;43493;53.098;6.064;2023-09-30T08:03:40;15.03;;;8.27;;
57663;SDS011;43493;53.098;6.064;2023-09-30T08:06:09;16.30;;;6.83;;
57663;SDS011;43493;53.098;6.064;2023-09-30T08:08:35;15.03;;;8.43;;
57663;SDS011;43493;53.098;6.064;2023-09-30T08:11:01;14.37;;;7.60;;
57663;SDS011;43493;53.098;6.064;2023-09-30T08:13:27;11.40;;;6.57;;
57663;SDS011;43493;53.098;6.064;2023-09-30T08:15:54;13.07;;;7.53;;
57663;SDS011;43493;53.098;6.064;2023-09-30T08:18:21;14.97;;;8.50;;
57663;SDS011;43493;53.098;6.064;2023-09-30T08:20:46;16.37;;;8.03;;
57663;SDS011;43493;53.098;6.064;2023-09-30T08:23:12;16.17;;;8.33;;
57663;SDS011;43493;53.098;6.064;2023-09-30T08:25:38;13.73;;;7.57;;
57663;SDS011;43493;53.098;6.064;2023-09-30T08:28:04;14.67;;;7.33;;
57663;SDS011;43493;53.098;6.064;2023-09-30T08:30:30;14.37;;;6.60;;
57663;SDS011;43493;53.098;6.064;2023-09-30T08:32:58;15.20;;;6.63;;
57663;SDS011;43493;53.098;6.064;2023-09-30T08:35:24;15.53;;;7.23;;
57663;SDS011;43493;53.098;6.064;2023-09-30T08:37:50;15.90;;;6.37;;
57663;SDS011;43493;53.098;6.064;2023-09-30T08:40:22;14.10;;;6.87;;
57663;SDS011;43493;53.098;6.064;2023-09-30T08:42:53;16.30;;;6.93;;
57663;SDS011;43493;53.098;6.064;2023-09-30T08:45:19;11.87;;;5.73;;
57663;SDS011;43493;53.098;6.064;2023-09-30T08:47:45;17.90;;;6.37;;
57663;SDS011;43493;53.098;6.064;2023-09-30T08:50:12;15.77;;;6.90;;
57663;SDS011;43493;53.098;6.064;2023-09-30T08:52:43;11.70;;;5.90;;
57663;SDS011;43493;53.098;6.064;2023-09-30T08:55:10;14.17;;;6.57;;
57663;SDS011;43493;53.098;6.064;2023-09-30T08:57:38;16.07;;;5.93;;
57663;SDS011;43493;53.098;6.064;2023-09-30T09:00:08;15.43;;;7.40;;
57663;SDS011;43493;53.098;6.064;2023-09-30T09:02:38;14.03;;;6.57;;
57663;SDS011;43493;53.098;6.064;2023-09-30T09:05:05;14.03;;;6.13;;
57663;SDS011;43493;53.098;6.064;2023-09-30T09:07:31;11.83;;;5.30;;
57663;SDS011;43493;53.098;6.064;2023-09-30T09:12:30;15.30;;;4.67;;
57663;SDS011;43493;53.098;6.064;2023-09-30T09:14:58;14.50;;;4.33;;
57663;SDS011;43493;53.098;6.064;2023-09-30T09:17:24;13.63;;;4.53;;
57663;SDS011;43493;53.098;6.064;2023-09-30T09:20:06;15.00;;;3.93;;
57663;SDS011;43493;53.098;6.064;2023-09-30T09:22:38;16.43;;;5.03;;
57663;SDS011;43493;53.098;6.064;2023-09-30T09:25:09;13.43;;;4.23;;
57663;SDS011;43493;53.098;6.064;2023-09-30T09:27:35;13.47;;;4.50;;
57663;SDS011;43493;53.098;6.064;2023-09-30T09:30:15;15.03;;;4.97;;
57663;SDS011;43493;53.098;6.064;2023-09-30T09:35:20;15.07;;;4.82;;
57663;SDS011;43493;53.098;6.064;2023-09-30T09:37:57;16.43;;;5.70;;
57663;SDS011;43493;53.098;6.064;2023-09-30T09:40:28;12.20;;;3.97;;
57663;SDS011;43493;53.098;6.064;2023-09-30T09:42:55;12.63;;;3.73;;
57663;SDS011;43493;53.098;6.064;2023-09-30T09:45:22;14.77;;;4.10;;
57663;SDS011;43493;53.098;6.064;2023-09-30T09:47:49;13.77;;;3.30;;
57663;SDS011;43493;53.098;6.064;2023-09-30T09:50:17;10.43;;;3.37;;
57663;SDS011;43493;53.098;6.064;2023-09-30T09:52:44;10.30;;;3.50;;
57663;SDS011;43493;53.098;6.064;2023-09-30T09:55:12;14.67;;;3.47;;
57663;SDS011;43493;53.098;6.064;2023-09-30T09:57:41;8.50;;;2.60;;
57663;SDS011;43493;53.098;6.064;2023-09-30T10:00:08;11.53;;;2.90;;
57663;SDS011;43493;53.098;6.064;2023-09-30T10:02:41;13.17;;;3.80;;
57663;SDS011;43493;53.098;6.064;2023-09-30T10:05:08;11.10;;;3.43;;
57663;SDS011;43493;53.098;6.064;2023-09-30T10:07:37;9.47;;;2.57;;
57663;SDS011;43493;53.098;6.064;2023-09-30T10:10:13;9.30;;;2.30;;
57663;SDS011;43493;53.098;6.064;2023-09-30T10:12:41;9.27;;;2.67;;
57663;SDS011;43493;53.098;6.064;2023-09-30T10:18:04;8.77;;;2.47;;
57663;SDS011;43493;53.098;6.064;2023-09-30T10:20:32;10.27;;;2.10;;
57663;SDS011;43493;53.098;6.064;2023-09-30T10:25:46;11.70;;;2.57;;
57663;SDS011;43493;53.098;6.064;2023-09-30T10:31:16;11.37;;;2.83;;
57663;SDS011;43493;53.098;6.064;2023-09-30T10:36:26;11.37;;;2.30;;
57663;SDS011;43493;53.098;6.064;2023-09-30T10:38:54;10.60;;;2.40;;
57663;SDS011;43493;53.098;6.064;2023-09-30T10:46:51;15.27;;;2.60;;
57663;SDS011;43493;53.098;6.064;2023-09-30T10:51:50;11.30;;;2.43;;
57663;SDS011;43493;53.098;6.064;2023-09-30T10:54:27;12.03;;;2.57;;
57663;SDS011;43493;53.098;6.064;2023-09-30T10:56:54;12.10;;;2.50;;
57663;SDS011;43493;53.098;6.064;2023-09-30T11:01:49;13.83;;;2.80;;
57663;SDS011;43493;53.098;6.064;2023-09-30T11:04:16;10.67;;;2.47;;
57663;SDS011;43493;53.098;6.064;2023-09-30T11:06:43;11.53;;;2.77;;
57663;SDS011;43493;53.098;6.064;2023-09-30T11:09:14;13.07;;;2.40;;
57663;SDS011;43493;53.098;6.064;2023-09-30T11:11:49;11.33;;;2.87;;
57663;SDS011;43493;53.098;6.064;2023-09-30T11:14:23;7.75;;;2.17;;
57663;SDS011;43493;53.098;6.064;2023-09-30T11:16:55;10.43;;;2.77;;
57663;SDS011;43493;53.098;6.064;2023-09-30T11:19:35;10.52;;;2.20;;
57663;SDS011;43493;53.098;6.064;2023-09-30T11:22:10;7.87;;;2.23;;
57663;SDS011;43493;53.098;6.064;2023-09-30T11:24:37;15.20;;;3.13;;
57663;SDS011;43493;53.098;6.064;2023-09-30T11:27:02;6.87;;;2.40;;
57663;SDS011;43493;53.098;6.064;2023-09-30T11:29:29;9.43;;;2.70;;
57663;SDS011;43493;53.098;6.064;2023-09-30T11:31:55;8.60;;;2.43;;
57663;SDS011;43493;53.098;6.064;2023-09-30T11:34:30;7.33;;;2.00;;
57663;SDS011;43493;53.098;6.064;2023-09-30T11:37:00;9.87;;;2.20;;
57663;SDS011;43493;53.098;6.064;2023-09-30T11:39:29;11.47;;;2.87;;
57663;SDS011;43493;53.098;6.064;2023-09-30T11:41:56;8.63;;;2.37;;
57663;SDS011;43493;53.098;6.064;2023-09-30T11:44:25;7.03;;;2.27;;
57663;SDS011;43493;53.098;6.064;2023-09-30T11:46:59;9.60;;;2.20;;
57663;SDS011;43493;53.098;6.064;2023-09-30T11:49:33;12.77;;;2.80;;
57663;SDS011;43493;53.098;6.064;2023-09-30T11:52:11;8.07;;;2.13;;
57663;SDS011;43493;53.098;6.064;2023-09-30T11:54:42;7.60;;;2.40;;
57663;SDS011;43493;53.098;6.064;2023-09-30T11:57:10;12.27;;;2.73;;
57663;SDS011;43493;53.098;6.064;2023-09-30T11:59:37;11.23;;;2.80;;
57663;SDS011;43493;53.098;6.064;2023-09-30T12:02:04;9.53;;;2.60;;
57663;SDS011;43493;53.098;6.064;2023-09-30T12:04:36;8.50;;;2.30;;
57663;SDS011;43493;53.098;6.064;2023-09-30T12:07:05;8.47;;;2.40;;
57663;SDS011;43493;53.098;6.064;2023-09-30T12:09:33;11.10;;;2.50;;
57663;SDS011;43493;53.098;6.064;2023-09-30T12:12:02;9.10;;;2.33;;
57663;SDS011;43493;53.098;6.064;2023-09-30T12:14:28;10.00;;;2.07;;
57663;SDS011;43493;53.098;6.064;2023-09-30T12:16:57;11.33;;;3.03;;
57663;SDS011;43493;53.098;6.064;2023-09-30T12:19:23;9.43;;;2.60;;
57663;SDS011;43493;53.098;6.064;2023-09-30T12:21:50;8.97;;;2.10;;
57663;SDS011;43493;53.098;6.064;2023-09-30T12:24:15;11.17;;;2.30;;
57663;SDS011;43493;53.098;6.064;2023-09-30T12:26:46;7.37;;;2.10;;
57663;SDS011;43493;53.098;6.064;2023-09-30T12:29:15;14.03;;;2.40;;
57663;SDS011;43493;53.098;6.064;2023-09-30T12:31:47;9.30;;;2.33;;
57663;SDS011;43493;53.098;6.064;2023-09-30T12:34:14;11.67;;;3.33;;
57663;SDS011;43493;53.098;6.064;2023-09-30T12:36:40;11.00;;;2.80;;
57663;SDS011;43493;53.098;6.064;2023-09-30T12:39:07;9.43;;;2.83;;
57663;SDS011;43493;53.098;6.064;2023-09-30T12:41:45;10.97;;;2.67;;
57663;SDS011;43493;53.098;6.064;2023-09-30T12:44:11;7.03;;;2.08;;
57663;SDS011;43493;53.098;6.064;2023-09-30T12:46:37;9.67;;;2.27;;
57663;SDS011;43493;53.098;6.064;2023-09-30T12:49:04;7.63;;;2.10;;
57663;SDS011;43493;53.098;6.064;2023-09-30T12:51:31;8.53;;;2.17;;
57663;SDS011;43493;53.098;6.064;2023-09-30T12:53:57;9.43;;;2.47;;
57663;SDS011;43493;53.098;6.064;2023-09-30T12:56:23;10.57;;;2.93;;
57663;SDS011;43493;53.098;6.064;2023-09-30T12:58:49;6.73;;;1.97;;
57663;SDS011;43493;53.098;6.064;2023-09-30T13:01:15;8.20;;;2.27;;
57663;SDS011;43493;53.098;6.064;2023-09-30T13:03:43;7.17;;;2.33;;
57663;SDS011;43493;53.098;6.064;2023-09-30T13:06:09;8.63;;;2.73;;
57663;SDS011;43493;53.098;6.064;2023-09-30T13:08:35;9.33;;;2.60;;
57663;SDS011;43493;53.098;6.064;2023-09-30T13:11:01;12.30;;;1.90;;
57663;SDS011;43493;53.098;6.064;2023-09-30T13:13:31;8.63;;;2.10;;
57663;SDS011;43493;53.098;6.064;2023-09-30T13:16:01;7.80;;;2.47;;
57663;SDS011;43493;53.098;6.064;2023-09-30T13:18:30;8.17;;;2.27;;
57663;SDS011;43493;53.098;6.064;2023-09-30T13:20:56;9.83;;;2.33;;
57663;SDS011;43493;53.098;6.064;2023-09-30T13:23:22;8.17;;;2.63;;
57663;SDS011;43493;53.098;6.064;2023-09-30T13:25:48;8.23;;;2.43;;
57663;SDS011;43493;53.098;6.064;2023-09-30T13:28:13;11.63;;;2.60;;
57663;SDS011;43493;53.098;6.064;2023-09-30T13:30:39;7.93;;;2.33;;
57663;SDS011;43493;53.098;6.064;2023-09-30T13:33:05;7.67;;;2.40;;
57663;SDS011;43493;53.098;6.064;2023-09-30T13:35:31;7.60;;;2.33;;
57663;SDS011;43493;53.098;6.064;2023-09-30T13:37:57;10.87;;;2.43;;
57663;SDS011;43493;53.098;6.064;2023-09-30T13:40:23;7.80;;;2.30;;
57663;SDS011;43493;53.098;6.064;2023-09-30T13:42:49;7.87;;;2.60;;
57663;SDS011;43493;53.098;6.064;2023-09-30T13:45:15;8.80;;;3.03;;
57663;SDS011;43493;53.098;6.064;2023-09-30T13:47:44;10.30;;;2.30;;
57663;SDS011;43493;53.098;6.064;2023-09-30T13:50:10;9.10;;;2.13;;
57663;SDS011;43493;53.098;6.064;2023-09-30T13:52:36;8.43;;;2.47;;
57663;SDS011;43493;53.098;6.064;2023-09-30T13:55:02;10.90;;;2.23;;
57663;SDS011;43493;53.098;6.064;2023-09-30T13:57:29;7.93;;;2.47;;
57663;SDS011;43493;53.098;6.064;2023-09-30T13:59:55;6.30;;;1.90;;
57663;SDS011;43493;53.098;6.064;2023-09-30T14:02:21;8.93;;;2.17;;
57663;SDS011;43493;53.098;6.064;2023-09-30T14:04:48;10.50;;;2.77;;
57663;SDS011;43493;53.098;6.064;2023-09-30T14:07:14;13.13;;;2.23;;
57663;SDS011;43493;53.098;6.064;2023-09-30T14:09:39;6.80;;;1.90;;
57663;SDS011;43493;53.098;6.064;2023-09-30T14:12:05;9.33;;;2.80;;
57663;SDS011;43493;53.098;6.064;2023-09-30T14:14:32;7.93;;;2.20;;
57663;SDS011;43493;53.098;6.064;2023-09-30T14:16:59;10.80;;;2.50;;
57663;SDS011;43493;53.098;6.064;2023-09-30T14:19:25;10.73;;;2.90;;
57663;SDS011;43493;53.098;6.064;2023-09-30T14:21:51;6.57;;;2.17;;
57663;SDS011;43493;53.098;6.064;2023-09-30T14:24:16;8.80;;;3.13;;
57663;SDS011;43493;53.098;6.064;2023-09-30T14:26:42;7.80;;;2.23;;
57663;SDS011;43493;53.098;6.064;2023-09-30T14:29:09;10.13;;;2.47;;
57663;SDS011;43493;53.098;6.064;2023-09-30T14:31:37;9.53;;;2.30;;
57663;SDS011;43493;53.098;6.064;2023-09-30T14:34:03;9.33;;;2.60;;
57663;SDS011;43493;53.098;6.064;2023-09-30T14:36:30;7.67;;;2.33;;
57663;SDS011;43493;53.098;6.064;2023-09-30T14:38:58;12.73;;;2.10;;
57663;SDS011;43493;53.098;6.064;2023-09-30T14:41:24;10.07;;;2.37;;
57663;SDS011;43493;53.098;6.064;2023-09-30T14:43:49;8.00;;;2.50;;
57663;SDS011;43493;53.098;6.064;2023-09-30T14:46:15;8.13;;;2.77;;
57663;SDS011;43493;53.098;6.064;2023-09-30T14:48:41;8.17;;;2.20;;
57663;SDS011;43493;53.098;6.064;2023-09-30T14:51:08;9.27;;;2.30;;
57663;SDS011;43493;53.098;6.064;2023-09-30T14:53:34;9.67;;;2.30;;
57663;SDS011;43493;53.098;6.064;2023-09-30T14:56:00;8.87;;;2.40;;
57663;SDS011;43493;53.098;6.064;2023-09-30T14:58:26;10.03;;;3.37;;
57663;SDS011;43493;53.098;6.064;2023-09-30T15:00:51;9.67;;;2.43;;
57663;SDS011;43493;53.098;6.064;2023-09-30T15:03:18;9.67;;;2.40;;
57663;SDS011;43493;53.098;6.064;2023-09-30T15:05:47;15.13;;;3.40;;
57663;SDS011;43493;53.098;6.064;2023-09-30T15:08:14;10.67;;;3.13;;